sensor_id;sensor_type;location;lat;lon;timestamp;pressure;altitude;pressure_sealevel;temperature;humidity
6851;BME280;3464;42.728;23.296;2023-01-27T00:00:27;94436.03;;;7.34;64.15
6851;BME280;3464;42.728;23.296;2023-01-27T00:02:54;94433.43;;;7.82;63.43
6851;BME280;3464;42.728;23.296;2023-01-27T00:05:24;94435.39;;;7.63;64.03
6851;BME280;3464;42.728;23.296;2023-01-27T00:08:01;94432.75;;;8.11;62.92
6851;BME280;3464;42.728;23.296;2023-01-27T00:10:30;94435.73;;;8.23;62.46
6851;BME280;3464;42.728;23.296;2023-01-27T00:13:02;94435.70;;;8.21;62.04
6851;BME280;3464;42.728;23.296;2023-01-27T00:15:35;94422.41;;;8.27;61.87
6851;BME280;3464;42.728;23.296;2023-01-27T00:18:01;94426.38;;;7.93;62.29
6851;BME280;3464;42.728;23.296;2023-01-27T00:20:29;94425.98;;;7.95;62.28
6851;BME280;3464;42.728;23.296;2023-01-27T00:23:01;94421.66;;;7.68;62.77
6851;BME280;3464;42.728;23.296;2023-01-27T00:25:33;94400.27;;;7.53;63.03
6851;BME280;3464;42.728;23.296;2023-01-27T00:28:01;94391.09;;;8.40;62.27
6851;BME280;3464;42.728;23.296;2023-01-27T00:30:28;94388.98;;;8.35;62.84
6851;BME280;3464;42.728;23.296;2023-01-27T00:32:55;94398.64;;;8.54;61.14
6851;BME280;3464;42.728;23.296;2023-01-27T00:35:28;94388.88;;;8.13;61.85
6851;BME280;3464;42.728;23.296;2023-01-27T00:37:56;94397.73;;;8.29;61.63
6851;BME280;3464;42.728;23.296;2023-01-27T00:40:25;94390.48;;;7.98;62.44
6851;BME280;3464;42.728;23.296;2023-01-27T00:42:52;94405.23;;;8.24;62.00
6851;BME280;3464;42.728;23.296;2023-01-27T00:45:19;94394.66;;;7.97;62.41
6851;BME280;3464;42.728;23.296;2023-01-27T00:47:52;94393.87;;;8.05;62.39
6851;BME280;3464;42.728;23.296;2023-01-27T00:50:21;94397.63;;;8.08;62.33
6851;BME280;3464;42.728;23.296;2023-01-27T00:52:51;94404.33;;;8.14;62.38
6851;BME280;3464;42.728;23.296;2023-01-27T00:55:19;94412.78;;;8.26;61.77
6851;BME280;3464;42.728;23.296;2023-01-27T00:57:47;94410.08;;;7.86;62.98
6851;BME280;3464;42.728;23.296;2023-01-27T01:00:15;94403.55;;;7.45;63.55
6851;BME280;3464;42.728;23.296;2023-01-27T01:02:43;94404.83;;;7.48;64.40
6851;BME280;3464;42.728;23.296;2023-01-27T01:05:11;94405.80;;;7.69;63.39
6851;BME280;3464;42.728;23.296;2023-01-27T01:07:38;94403.05;;;8.00;62.27
6851;BME280;3464;42.728;23.296;2023-01-27T01:10:07;94399.30;;;8.03;62.62
6851;BME280;3464;42.728;23.296;2023-01-27T01:12:34;94398.00;;;7.98;62.11
6851;BME280;3464;42.728;23.296;2023-01-27T01:15:04;94400.62;;;7.41;64.41
6851;BME280;3464;42.728;23.296;2023-01-27T01:17:31;94401.27;;;7.14;65.32
6851;BME280;3464;42.728;23.296;2023-01-27T01:19:59;94401.95;;;6.95;65.93
6851;BME280;3464;42.728;23.296;2023-01-27T01:22:26;94407.31;;;6.88;65.40
6851;BME280;3464;42.728;23.296;2023-01-27T01:24:53;94411.38;;;7.28;65.77
6851;BME280;3464;42.728;23.296;2023-01-27T01:27:23;94408.77;;;7.15;64.63
6851;BME280;3464;42.728;23.296;2023-01-27T01:29:53;94415.36;;;7.04;65.96
6851;BME280;3464;42.728;23.296;2023-01-27T01:32:20;94405.21;;;7.42;65.21
6851;BME280;3464;42.728;23.296;2023-01-27T01:34:49;94403.36;;;7.15;64.93
6851;BME280;3464;42.728;23.296;2023-01-27T01:37:17;94407.48;;;7.10;65.91
6851;BME280;3464;42.728;23.296;2023-01-27T01:39:43;94413.99;;;7.45;64.85
6851;BME280;3464;42.728;23.296;2023-01-27T01:42:12;94407.78;;;7.51;65.57
6851;BME280;3464;42.728;23.296;2023-01-27T01:44:45;94414.76;;;8.10;64.92
6851;BME280;3464;42.728;23.296;2023-01-27T01:47:16;94414.65;;;7.86;64.82
6851;BME280;3464;42.728;23.296;2023-01-27T01:49:45;94416.88;;;8.16;64.08
6851;BME280;3464;42.728;23.296;2023-01-27T01:52:16;94414.72;;;8.00;64.54
6851;BME280;3464;42.728;23.296;2023-01-27T01:54:46;94414.36;;;8.12;64.09
6851;BME280;3464;42.728;23.296;2023-01-27T01:57:15;94405.23;;;8.23;64.02
6851;BME280;3464;42.728;23.296;2023-01-27T01:59:43;94400.48;;;7.94;64.26
6851;BME280;3464;42.728;23.296;2023-01-27T02:02:11;94393.70;;;7.71;64.40
6851;BME280;3464;42.728;23.296;2023-01-27T02:04:39;94394.78;;;7.44;65.60
6851;BME280;3464;42.728;23.296;2023-01-27T02:07:08;94384.67;;;8.08;63.65
6851;BME280;3464;42.728;23.296;2023-01-27T02:09:33;94378.85;;;8.09;63.16
6851;BME280;3464;42.728;23.296;2023-01-27T02:12:00;94367.64;;;8.22;62.76
6851;BME280;3464;42.728;23.296;2023-01-27T02:14:26;94366.44;;;8.42;62.27
6851;BME280;3464;42.728;23.296;2023-01-27T02:16:54;94358.52;;;7.50;63.02
6851;BME280;3464;42.728;23.296;2023-01-27T02:19:24;94350.94;;;7.39;64.93
6851;BME280;3464;42.728;23.296;2023-01-27T02:21:49;94350.44;;;7.25;64.63
6851;BME280;3464;42.728;23.296;2023-01-27T02:24:17;94343.95;;;7.57;64.60
6851;BME280;3464;42.728;23.296;2023-01-27T02:26:45;94334.05;;;7.85;64.70
6851;BME280;3464;42.728;23.296;2023-01-27T02:29:13;94328.22;;;7.84;63.95
6851;BME280;3464;42.728;23.296;2023-01-27T02:31:39;94331.56;;;7.89;63.76
6851;BME280;3464;42.728;23.296;2023-01-27T02:34:07;94325.05;;;8.29;63.14
6851;BME280;3464;42.728;23.296;2023-01-27T02:36:35;94333.66;;;7.88;63.07
6851;BME280;3464;42.728;23.296;2023-01-27T02:39:01;94332.14;;;8.26;62.73
6851;BME280;3464;42.728;23.296;2023-01-27T02:41:32;94339.20;;;7.28;64.14
6851;BME280;3464;42.728;23.296;2023-01-27T02:43:58;94341.03;;;7.55;63.97
6851;BME280;3464;42.728;23.296;2023-01-27T02:46:25;94338.05;;;6.81;64.41
6851;BME280;3464;42.728;23.296;2023-01-27T02:48:52;94345.28;;;6.50;65.91
6851;BME280;3464;42.728;23.296;2023-01-27T02:51:20;94345.63;;;6.93;65.93
6851;BME280;3464;42.728;23.296;2023-01-27T02:53:48;94345.23;;;7.60;64.00
6851;BME280;3464;42.728;23.296;2023-01-27T02:56:16;94355.90;;;7.32;64.13
6851;BME280;3464;42.728;23.296;2023-01-27T02:58:43;94354.06;;;7.76;63.98
6851;BME280;3464;42.728;23.296;2023-01-27T03:01:09;94349.12;;;7.94;62.90
6851;BME280;3464;42.728;23.296;2023-01-27T03:03:36;94345.75;;;7.81;62.77
6851;BME280;3464;42.728;23.296;2023-01-27T03:06:05;94344.42;;;7.71;62.69
6851;BME280;3464;42.728;23.296;2023-01-27T03:08:33;94339.02;;;7.72;63.63
6851;BME280;3464;42.728;23.296;2023-01-27T03:11:00;94331.16;;;7.84;62.47
6851;BME280;3464;42.728;23.296;2023-01-27T03:13:30;94336.58;;;7.89;62.91
6851;BME280;3464;42.728;23.296;2023-01-27T03:15:59;94335.38;;;7.97;62.76
6851;BME280;3464;42.728;23.296;2023-01-27T03:18:31;94327.12;;;8.28;62.22
6851;BME280;3464;42.728;23.296;2023-01-27T03:21:02;94322.11;;;8.26;61.41
6851;BME280;3464;42.728;23.296;2023-01-27T03:23:27;94314.19;;;8.27;61.52
6851;BME280;3464;42.728;23.296;2023-01-27T03:25:54;94314.19;;;8.28;61.15
6851;BME280;3464;42.728;23.296;2023-01-27T03:28:21;94312.81;;;7.98;61.10
6851;BME280;3464;42.728;23.296;2023-01-27T03:30:49;94311.53;;;7.92;61.27
6851;BME280;3464;42.728;23.296;2023-01-27T03:33:17;94310.76;;;8.14;61.73
6851;BME280;3464;42.728;23.296;2023-01-27T03:35:44;94300.33;;;8.08;62.08
6851;BME280;3464;42.728;23.296;2023-01-27T03:38:15;94292.37;;;8.11;61.67
6851;BME280;3464;42.728;23.296;2023-01-27T03:40:47;94287.02;;;8.26;61.70
6851;BME280;3464;42.728;23.296;2023-01-27T03:43:19;94287.86;;;8.28;62.06
6851;BME280;3464;42.728;23.296;2023-01-27T03:45:52;94281.59;;;8.38;61.98
6851;BME280;3464;42.728;23.296;2023-01-27T03:48:25;94267.41;;;8.60;62.22
6851;BME280;3464;42.728;23.296;2023-01-27T03:50:55;94267.39;;;8.62;61.77
6851;BME280;3464;42.728;23.296;2023-01-27T03:53:20;94278.27;;;8.54;61.52
6851;BME280;3464;42.728;23.296;2023-01-27T03:55:48;94274.48;;;8.32;61.90
6851;BME280;3464;42.728;23.296;2023-01-27T03:58:20;94270.73;;;8.67;62.15
6851;BME280;3464;42.728;23.296;2023-01-27T04:00:49;94274.91;;;8.49;62.11
6851;BME280;3464;42.728;23.296;2023-01-27T04:03:18;94275.34;;;8.44;62.15
6851;BME280;3464;42.728;23.296;2023-01-27T04:05:49;94266.06;;;8.13;62.69
6851;BME280;3464;42.728;23.296;2023-01-27T04:08:22;94277.86;;;8.65;61.47
6851;BME280;3464;42.728;23.296;2023-01-27T04:10:49;94297.48;;;8.96;60.65
6851;BME280;3464;42.728;23.296;2023-01-27T04:13:15;94302.52;;;9.02;60.09
6851;BME280;3464;42.728;23.296;2023-01-27T04:15:43;94310.05;;;9.08;59.93
6851;BME280;3464;42.728;23.296;2023-01-27T04:18:15;94330.53;;;8.85;59.79
6851;BME280;3464;42.728;23.296;2023-01-27T04:20:43;94343.90;;;8.80;60.59
6851;BME280;3464;42.728;23.296;2023-01-27T04:23:10;94350.61;;;8.78;60.49
6851;BME280;3464;42.728;23.296;2023-01-27T04:25:38;94345.16;;;8.73;60.57
6851;BME280;3464;42.728;23.296;2023-01-27T04:28:05;94340.16;;;8.71;60.99
6851;BME280;3464;42.728;23.296;2023-01-27T04:30:33;94350.55;;;8.39;61.65
6851;BME280;3464;42.728;23.296;2023-01-27T04:33:02;94353.13;;;8.91;62.13
6851;BME280;3464;42.728;23.296;2023-01-27T04:35:31;94366.48;;;9.11;60.93
6851;BME280;3464;42.728;23.296;2023-01-27T04:37:59;94372.75;;;8.80;60.87
6851;BME280;3464;42.728;23.296;2023-01-27T04:40:28;94374.02;;;8.73;60.79
6851;BME280;3464;42.728;23.296;2023-01-27T04:42:55;94355.20;;;8.65;61.39
6851;BME280;3464;42.728;23.296;2023-01-27T04:45:23;94365.50;;;8.20;63.13
6851;BME280;3464;42.728;23.296;2023-01-27T04:47:51;94375.28;;;8.72;62.48
6851;BME280;3464;42.728;23.296;2023-01-27T04:50:18;94376.55;;;8.75;61.83
6851;BME280;3464;42.728;23.296;2023-01-27T04:52:46;94365.98;;;8.33;63.33
6851;BME280;3464;42.728;23.296;2023-01-27T04:55:13;94354.31;;;8.36;63.09
6851;BME280;3464;42.728;23.296;2023-01-27T04:57:43;94369.82;;;8.53;62.44
6851;BME280;3464;42.728;23.296;2023-01-27T05:00:14;94379.36;;;8.32;62.90
6851;BME280;3464;42.728;23.296;2023-01-27T05:02:44;94382.77;;;8.56;61.59
6851;BME280;3464;42.728;23.296;2023-01-27T05:05:12;94369.78;;;8.46;63.32
6851;BME280;3464;42.728;23.296;2023-01-27T05:07:40;94368.09;;;8.40;63.25
6851;BME280;3464;42.728;23.296;2023-01-27T05:10:09;94373.94;;;8.31;63.90
6851;BME280;3464;42.728;23.296;2023-01-27T05:12:38;94379.38;;;8.43;63.63
6851;BME280;3464;42.728;23.296;2023-01-27T05:15:07;94374.88;;;8.78;61.78
6851;BME280;3464;42.728;23.296;2023-01-27T05:17:34;94370.20;;;8.40;62.80
6851;BME280;3464;42.728;23.296;2023-01-27T05:20:09;94357.26;;;8.59;63.50
6851;BME280;3464;42.728;23.296;2023-01-27T05:22:38;94362.77;;;7.64;64.64
6851;BME280;3464;42.728;23.296;2023-01-27T05:25:06;94377.05;;;7.80;64.62
6851;BME280;3464;42.728;23.296;2023-01-27T05:27:33;94369.75;;;8.34;63.43
6851;BME280;3464;42.728;23.296;2023-01-27T05:30:01;94362.63;;;8.29;63.36
6851;BME280;3464;42.728;23.296;2023-01-27T05:32:35;94353.69;;;7.85;64.61
6851;BME280;3464;42.728;23.296;2023-01-27T05:35:12;94354.08;;;7.79;64.64
6851;BME280;3464;42.728;23.296;2023-01-27T05:37:46;94352.52;;;8.07;65.01
6851;BME280;3464;42.728;23.296;2023-01-27T05:40:12;94347.48;;;8.00;65.30
6851;BME280;3464;42.728;23.296;2023-01-27T05:42:39;94348.77;;;8.06;64.89
6851;BME280;3464;42.728;23.296;2023-01-27T05:45:08;94334.03;;;7.82;65.76
6851;BME280;3464;42.728;23.296;2023-01-27T05:47:35;94328.08;;;7.54;65.97
6851;BME280;3464;42.728;23.296;2023-01-27T05:50:02;94330.22;;;7.66;65.84
6851;BME280;3464;42.728;23.296;2023-01-27T05:52:35;94339.77;;;7.54;65.88
6851;BME280;3464;42.728;23.296;2023-01-27T05:55:04;94337.03;;;7.93;64.59
6851;BME280;3464;42.728;23.296;2023-01-27T05:57:32;94341.23;;;8.08;64.27
6851;BME280;3464;42.728;23.296;2023-01-27T06:00:01;94343.84;;;8.25;62.41
6851;BME280;3464;42.728;23.296;2023-01-27T06:02:28;94350.09;;;8.23;62.89
6851;BME280;3464;42.728;23.296;2023-01-27T06:04:57;94353.91;;;8.44;62.31
6851;BME280;3464;42.728;23.296;2023-01-27T06:07:27;94365.17;;;8.39;62.21
6851;BME280;3464;42.728;23.296;2023-01-27T06:10:00;94371.87;;;8.46;61.73
6851;BME280;3464;42.728;23.296;2023-01-27T06:12:30;94351.42;;;8.47;61.45
6851;BME280;3464;42.728;23.296;2023-01-27T06:14:57;94349.76;;;8.64;60.88
6851;BME280;3464;42.728;23.296;2023-01-27T06:17:27;94348.48;;;8.61;62.14
6851;BME280;3464;42.728;23.296;2023-01-27T06:20:07;94360.46;;;8.09;62.03
6851;BME280;3464;42.728;23.296;2023-01-27T06:22:35;94356.32;;;8.20;62.17
6851;BME280;3464;42.728;23.296;2023-01-27T06:25:02;94354.22;;;8.16;62.05
6851;BME280;3464;42.728;23.296;2023-01-27T06:27:30;94363.31;;;7.89;62.82
6851;BME280;3464;42.728;23.296;2023-01-27T06:29:58;94366.03;;;8.43;62.29
6851;BME280;3464;42.728;23.296;2023-01-27T06:32:28;94359.81;;;8.80;60.36
6851;BME280;3464;42.728;23.296;2023-01-27T06:34:56;94339.30;;;8.69;60.26
6851;BME280;3464;42.728;23.296;2023-01-27T06:37:31;94364.41;;;9.02;59.28
6851;BME280;3464;42.728;23.296;2023-01-27T06:40:00;94362.72;;;9.23;58.99
6851;BME280;3464;42.728;23.296;2023-01-27T06:42:31;94353.94;;;8.70;60.33
6851;BME280;3464;42.728;23.296;2023-01-27T06:45:03;94368.55;;;8.48;60.62
6851;BME280;3464;42.728;23.296;2023-01-27T06:47:32;94375.27;;;8.87;59.95
6851;BME280;3464;42.728;23.296;2023-01-27T06:50:00;94375.70;;;8.82;60.04
6851;BME280;3464;42.728;23.296;2023-01-27T06:52:30;94364.83;;;9.10;58.98
6851;BME280;3464;42.728;23.296;2023-01-27T06:54:57;94361.88;;;8.71;60.56
6851;BME280;3464;42.728;23.296;2023-01-27T06:57:25;94366.93;;;9.04;59.44
6851;BME280;3464;42.728;23.296;2023-01-27T06:59:55;94375.72;;;9.18;58.39
6851;BME280;3464;42.728;23.296;2023-01-27T07:02:25;94376.13;;;8.86;58.76
6851;BME280;3464;42.728;23.296;2023-01-27T07:14:00;94378.62;;;9.31;58.16
6851;BME280;3464;42.728;23.296;2023-01-27T07:19:58;94379.47;;;9.32;58.22
6851;BME280;3464;42.728;23.296;2023-01-27T07:22:51;94369.41;;;9.51;58.60
6851;BME280;3464;42.728;23.296;2023-01-27T07:28:34;94379.47;;;8.91;57.97
6851;BME280;3464;42.728;23.296;2023-01-27T07:31:16;94375.72;;;9.12;57.36
6851;BME280;3464;42.728;23.296;2023-01-27T07:33:51;94372.34;;;9.24;57.52
6851;BME280;3464;42.728;23.296;2023-01-27T07:36:20;94378.19;;;9.46;57.40
6851;BME280;3464;42.728;23.296;2023-01-27T07:38:49;94376.03;;;9.74;56.90
6851;BME280;3464;42.728;23.296;2023-01-27T07:41:16;94381.95;;;9.39;57.23
6851;BME280;3464;42.728;23.296;2023-01-27T07:43:43;94383.25;;;9.22;57.67
6851;BME280;3464;42.728;23.296;2023-01-27T07:46:10;94376.52;;;9.45;57.68
6851;BME280;3464;42.728;23.296;2023-01-27T07:48:36;94381.50;;;9.67;57.27
6851;BME280;3464;42.728;23.296;2023-01-27T07:51:03;94385.69;;;9.69;57.34
6851;BME280;3464;42.728;23.296;2023-01-27T07:53:40;94379.39;;;9.72;55.80
6851;BME280;3464;42.728;23.296;2023-01-27T07:56:22;94380.55;;;10.11;55.99
6851;BME280;3464;42.728;23.296;2023-01-27T07:58:52;94380.20;;;9.81;55.49
6851;BME280;3464;42.728;23.296;2023-01-27T08:01:25;94387.77;;;9.73;56.00
6851;BME280;3464;42.728;23.296;2023-01-27T08:03:57;94386.44;;;10.01;54.96
6851;BME280;3464;42.728;23.296;2023-01-27T08:06:47;94384.37;;;9.88;55.89
6851;BME280;3464;42.728;23.296;2023-01-27T08:09:28;94386.97;;;9.51;56.42
6851;BME280;3464;42.728;23.296;2023-01-27T08:12:15;94382.05;;;10.49;55.07
6851;BME280;3464;42.728;23.296;2023-01-27T08:14:49;94374.64;;;10.21;55.13
6851;BME280;3464;42.728;23.296;2023-01-27T08:17:16;94380.12;;;10.12;55.53
6851;BME280;3464;42.728;23.296;2023-01-27T08:19:44;94379.72;;;10.11;55.04
6851;BME280;3464;42.728;23.296;2023-01-27T08:22:35;94374.78;;;9.74;54.39
6851;BME280;3464;42.728;23.296;2023-01-27T08:25:25;94375.41;;;10.41;53.92
6851;BME280;3464;42.728;23.296;2023-01-27T08:27:54;94375.40;;;10.42;53.55
6851;BME280;3464;42.728;23.296;2023-01-27T08:33:09;94399.50;;;10.78;53.95
6851;BME280;3464;42.728;23.296;2023-01-27T08:35:36;94391.45;;;9.97;54.78
6851;BME280;3464;42.728;23.296;2023-01-27T08:38:28;94391.70;;;10.51;53.89
6851;BME280;3464;42.728;23.296;2023-01-27T08:40:57;94391.13;;;9.68;55.21
6851;BME280;3464;42.728;23.296;2023-01-27T08:43:24;94391.11;;;9.76;55.19
6851;BME280;3464;42.728;23.296;2023-01-27T08:45:51;94393.05;;;10.35;55.47
6851;BME280;3464;42.728;23.296;2023-01-27T08:48:17;94399.07;;;9.69;54.32
6851;BME280;3464;42.728;23.296;2023-01-27T08:50:44;94403.20;;;9.93;54.49
6851;BME280;3464;42.728;23.296;2023-01-27T08:53:11;94390.31;;;9.52;55.11
6851;BME280;3464;42.728;23.296;2023-01-27T08:55:38;94391.08;;;9.91;54.69
6851;BME280;3464;42.728;23.296;2023-01-27T08:58:04;94387.77;;;10.78;53.35
6851;BME280;3464;42.728;23.296;2023-01-27T09:00:31;94393.05;;;10.30;53.10
6851;BME280;3464;42.728;23.296;2023-01-27T09:02:58;94392.00;;;9.56;54.85
6851;BME280;3464;42.728;23.296;2023-01-27T09:05:27;94390.30;;;9.62;53.90
6851;BME280;3464;42.728;23.296;2023-01-27T09:07:55;94394.47;;;9.76;54.64
6851;BME280;3464;42.728;23.296;2023-01-27T09:10:22;94391.13;;;9.73;54.62
6851;BME280;3464;42.728;23.296;2023-01-27T09:12:49;94386.03;;;9.95;55.20
6851;BME280;3464;42.728;23.296;2023-01-27T09:15:15;94387.42;;;9.16;55.52
6851;BME280;3464;42.728;23.296;2023-01-27T09:17:42;94382.33;;;9.65;55.70
6851;BME280;3464;42.728;23.296;2023-01-27T09:20:09;94378.20;;;9.33;55.58
6851;BME280;3464;42.728;23.296;2023-01-27T09:22:37;94377.66;;;9.95;53.90
6851;BME280;3464;42.728;23.296;2023-01-27T09:25:06;94382.70;;;9.87;54.24
6851;BME280;3464;42.728;23.296;2023-01-27T09:27:32;94384.67;;;10.30;53.73
6851;BME280;3464;42.728;23.296;2023-01-27T09:29:58;94374.39;;;10.67;53.59
6851;BME280;3464;42.728;23.296;2023-01-27T09:32:25;94373.00;;;10.05;54.00
6851;BME280;3464;42.728;23.296;2023-01-27T09:34:51;94376.78;;;10.91;53.04
6851;BME280;3464;42.728;23.296;2023-01-27T09:37:18;94370.20;;;10.69;53.54
6851;BME280;3464;42.728;23.296;2023-01-27T09:39:47;94365.30;;;10.48;53.92
6851;BME280;3464;42.728;23.296;2023-01-27T09:42:22;94352.44;;;10.23;53.48
6851;BME280;3464;42.728;23.296;2023-01-27T09:45:04;94345.39;;;10.07;54.21
6851;BME280;3464;42.728;23.296;2023-01-27T09:47:51;94349.05;;;10.25;54.16
6851;BME280;3464;42.728;23.296;2023-01-27T09:50:18;94355.01;;;10.10;54.54
6851;BME280;3464;42.728;23.296;2023-01-27T09:52:49;94349.55;;;10.83;53.46
6851;BME280;3464;42.728;23.296;2023-01-27T09:55:33;94343.83;;;10.63;52.79
6851;BME280;3464;42.728;23.296;2023-01-27T09:58:19;94347.04;;;10.81;53.11
6851;BME280;3464;42.728;23.296;2023-01-27T10:00:51;94346.93;;;10.35;53.71
6851;BME280;3464;42.728;23.296;2023-01-27T10:03:21;94334.20;;;9.63;54.95
6851;BME280;3464;42.728;23.296;2023-01-27T10:06:07;94339.92;;;10.08;54.60
6851;BME280;3464;42.728;23.296;2023-01-27T10:08:53;94330.84;;;9.67;55.29
6851;BME280;3464;42.728;23.296;2023-01-27T10:11:18;94330.86;;;9.58;54.76
6851;BME280;3464;42.728;23.296;2023-01-27T10:16:41;94329.20;;;9.56;55.54
6851;BME280;3464;42.728;23.296;2023-01-27T10:19:19;94315.70;;;9.82;55.01
6851;BME280;3464;42.728;23.296;2023-01-27T10:24:50;94320.49;;;9.00;55.54
6851;BME280;3464;42.728;23.296;2023-01-27T10:27:16;94325.81;;;8.17;56.86
6851;BME280;3464;42.728;23.296;2023-01-27T10:29:44;94330.50;;;8.34;57.69
6851;BME280;3464;42.728;23.296;2023-01-27T10:32:23;94326.35;;;8.62;57.50
6851;BME280;3464;42.728;23.296;2023-01-27T10:34:47;94336.81;;;8.65;57.35
6851;BME280;3464;42.728;23.296;2023-01-27T10:39:53;94320.80;;;9.63;55.33
6851;BME280;3464;42.728;23.296;2023-01-27T10:42:38;94318.41;;;9.07;56.15
6851;BME280;3464;42.728;23.296;2023-01-27T10:45:10;94318.78;;;9.27;55.79
6851;BME280;3464;42.728;23.296;2023-01-27T10:48:02;94320.92;;;8.56;56.71
6851;BME280;3464;42.728;23.296;2023-01-27T10:50:27;94318.64;;;9.77;55.33
6851;BME280;3464;42.728;23.296;2023-01-27T10:53:10;94314.16;;;9.44;55.96
6851;BME280;3464;42.728;23.296;2023-01-27T10:55:38;94307.70;;;9.90;55.00
6851;BME280;3464;42.728;23.296;2023-01-27T10:58:05;94305.41;;;9.18;55.85
6851;BME280;3464;42.728;23.296;2023-01-27T11:00:39;94306.27;;;8.56;56.92
6851;BME280;3464;42.728;23.296;2023-01-27T11:03:10;94310.00;;;9.15;56.53
6851;BME280;3464;42.728;23.296;2023-01-27T11:05:37;94315.41;;;9.37;55.77
6851;BME280;3464;42.728;23.296;2023-01-27T11:08:06;94311.52;;;9.84;55.29
6851;BME280;3464;42.728;23.296;2023-01-27T11:10:34;94311.90;;;9.87;55.22
6851;BME280;3464;42.728;23.296;2023-01-27T11:12:59;94309.72;;;10.07;54.48
6851;BME280;3464;42.728;23.296;2023-01-27T11:15:27;94306.19;;;10.45;53.85
6851;BME280;3464;42.728;23.296;2023-01-27T11:17:59;94305.16;;;10.07;54.67
6851;BME280;3464;42.728;23.296;2023-01-27T11:20:32;94303.48;;;10.75;53.36
6851;BME280;3464;42.728;23.296;2023-01-27T11:23:05;94300.17;;;10.68;53.18
6851;BME280;3464;42.728;23.296;2023-01-27T11:25:43;94297.27;;;10.63;53.20
6851;BME280;3464;42.728;23.296;2023-01-27T11:28:16;94294.19;;;10.82;53.97
6851;BME280;3464;42.728;23.296;2023-01-27T11:31:03;94295.92;;;10.10;54.47
6851;BME280;3464;42.728;23.296;2023-01-27T11:33:41;94281.08;;;10.39;54.15
6851;BME280;3464;42.728;23.296;2023-01-27T11:36:01;94283.16;;;10.41;53.81
6851;BME280;3464;42.728;23.296;2023-01-27T11:38:27;94280.02;;;10.70;53.36
6851;BME280;3464;42.728;23.296;2023-01-27T11:40:54;94275.34;;;10.17;53.89
6851;BME280;3464;42.728;23.296;2023-01-27T11:43:23;94279.89;;;10.25;53.85
6851;BME280;3464;42.728;23.296;2023-01-27T11:45:48;94290.55;;;10.60;53.40
6851;BME280;3464;42.728;23.296;2023-01-27T11:48:31;94222.69;;;10.52;52.42
6851;BME280;3464;42.728;23.296;2023-01-27T11:50:55;94288.67;;;10.89;52.73
6851;BME280;3464;42.728;23.296;2023-01-27T11:53:26;94287.02;;;10.86;52.71
6851;BME280;3464;42.728;23.296;2023-01-27T11:55:54;94285.70;;;10.36;53.65
6851;BME280;3464;42.728;23.296;2023-01-27T11:58:23;94274.58;;;10.66;53.40
6851;BME280;3464;42.728;23.296;2023-01-27T12:00:54;94277.29;;;10.42;53.97
6851;BME280;3464;42.728;23.296;2023-01-27T12:03:22;94279.53;;;10.15;54.22
6851;BME280;3464;42.728;23.296;2023-01-27T12:05:54;94276.77;;;9.76;55.25
6851;BME280;3464;42.728;23.296;2023-01-27T12:08:41;94279.22;;;10.64;53.97
6851;BME280;3464;42.728;23.296;2023-01-27T12:11:22;94273.41;;;11.04;52.78
6851;BME280;3464;42.728;23.296;2023-01-27T12:13:52;94272.70;;;10.90;52.41
6851;BME280;3464;42.728;23.296;2023-01-27T12:16:18;94278.89;;;10.50;53.90
6851;BME280;3464;42.728;23.296;2023-01-27T12:18:51;94279.36;;;9.58;55.14
6851;BME280;3464;42.728;23.296;2023-01-27T12:21:16;94287.27;;;9.71;55.72
6851;BME280;3464;42.728;23.296;2023-01-27T12:23:47;94284.72;;;9.77;56.33
6851;BME280;3464;42.728;23.296;2023-01-27T12:26:12;94287.50;;;10.15;55.39
6851;BME280;3464;42.728;23.296;2023-01-27T12:28:46;94290.91;;;9.99;56.20
6851;BME280;3464;42.728;23.296;2023-01-27T12:31:11;94289.63;;;10.04;56.59
6851;BME280;3464;42.728;23.296;2023-01-27T12:33:39;94291.62;;;10.31;55.70
6851;BME280;3464;42.728;23.296;2023-01-27T12:36:09;94284.42;;;10.38;54.74
6851;BME280;3464;42.728;23.296;2023-01-27T12:38:33;94286.28;;;10.02;55.66
6851;BME280;3464;42.728;23.296;2023-01-27T12:41:03;94292.14;;;10.05;55.75
6851;BME280;3464;42.728;23.296;2023-01-27T12:43:29;94280.66;;;9.42;56.89
6851;BME280;3464;42.728;23.296;2023-01-27T12:48:47;94291.55;;;9.39;57.48
6851;BME280;3464;42.728;23.296;2023-01-27T12:51:15;94286.84;;;9.76;57.23
6851;BME280;3464;42.728;23.296;2023-01-27T12:53:42;94290.96;;;9.91;57.02
6851;BME280;3464;42.728;23.296;2023-01-27T12:56:11;94288.44;;;10.67;55.65
6851;BME280;3464;42.728;23.296;2023-01-27T12:58:39;94291.48;;;9.61;56.32
6851;BME280;3464;42.728;23.296;2023-01-27T13:01:26;94291.46;;;9.70;56.16
6851;BME280;3464;42.728;23.296;2023-01-27T13:03:57;94286.34;;;9.88;56.34
6851;BME280;3464;42.728;23.296;2023-01-27T13:06:41;94278.53;;;10.43;54.73
6851;BME280;3464;42.728;23.296;2023-01-27T13:09:09;94277.34;;;10.31;55.42
6851;BME280;3464;42.728;23.296;2023-01-27T13:11:34;94276.05;;;10.36;55.05
6851;BME280;3464;42.728;23.296;2023-01-27T13:13:59;94275.83;;;10.70;54.45
6851;BME280;3464;42.728;23.296;2023-01-27T13:16:27;94273.73;;;10.66;55.03
6851;BME280;3464;42.728;23.296;2023-01-27T13:18:54;94276.17;;;10.79;54.09
6851;BME280;3464;42.728;23.296;2023-01-27T13:21:20;94266.47;;;10.31;54.33
6851;BME280;3464;42.728;23.296;2023-01-27T13:23:47;94275.06;;;10.60;54.43
6851;BME280;3464;42.728;23.296;2023-01-27T13:26:19;94276.31;;;11.52;52.67
6851;BME280;3464;42.728;23.296;2023-01-27T13:34:10;94276.20;;;11.99;51.56
6851;BME280;3464;42.728;23.296;2023-01-27T13:36:43;94280.43;;;11.57;51.67
6851;BME280;3464;42.728;23.296;2023-01-27T13:39:16;94286.17;;;10.88;52.94
6851;BME280;3464;42.728;23.296;2023-01-27T13:41:42;94277.64;;;11.02;53.15
6851;BME280;3464;42.728;23.296;2023-01-27T13:44:16;94279.47;;;10.86;53.21
6851;BME280;3464;42.728;23.296;2023-01-27T13:46:40;94281.26;;;10.69;53.08
6851;BME280;3464;42.728;23.296;2023-01-27T13:49:14;94278.25;;;10.78;53.15
6851;BME280;3464;42.728;23.296;2023-01-27T13:51:37;94287.95;;;10.76;53.52
6851;BME280;3464;42.728;23.296;2023-01-27T13:54:04;94285.77;;;10.84;53.24
6851;BME280;3464;42.728;23.296;2023-01-27T13:59:31;94293.69;;;10.31;53.80
6851;BME280;3464;42.728;23.296;2023-01-27T14:02:07;94294.25;;;10.72;53.50
6851;BME280;3464;42.728;23.296;2023-01-27T14:04:37;94295.59;;;10.59;53.49
6851;BME280;3464;42.728;23.296;2023-01-27T14:07:08;94298.98;;;10.56;53.53
6851;BME280;3464;42.728;23.296;2023-01-27T14:09:38;94298.69;;;10.37;54.23
6851;BME280;3464;42.728;23.296;2023-01-27T14:12:22;94299.77;;;10.66;53.23